sensor_id;sensor_type;location;lat;lon;timestamp;P1;durP1;ratioP1;P2;durP2;ratioP2
67554;SDS011;54385;53.516;49.456;2023-11-21T00:01:11;1.30;;;1.00;;
67554;SDS011;54385;53.516;49.456;2023-11-21T00:03:38;1.90;;;1.25;;
67554;SDS011;54385;53.516;49.456;2023-11-21T00:06:05;1.13;;;1.02;;
67554;SDS011;54385;53.516;49.456;2023-11-21T00:08:35;1.80;;;1.23;;
67554;SDS011;54385;53.516;49.456;2023-11-21T00:11:02;2.60;;;1.25;;
67554;SDS011;54385;53.516;49.456;2023-11-21T00:13:31;1.58;;;1.25;;
67554;SDS011;54385;53.516;49.456;2023-11-21T00:15:59;1.38;;;1.10;;
67554;SDS011;54385;53.516;49.456;2023-11-21T00:18:26;1.65;;;1.25;;
67554;SDS011;54385;53.516;49.456;2023-11-21T00:20:53;2.00;;;1.10;;
67554;SDS011;54385;53.516;49.456;2023-11-21T00:23:20;2.40;;;1.50;;
67554;SDS011;54385;53.516;49.456;2023-11-21T00:25:46;1.23;;;1.10;;
67554;SDS011;54385;53.516;49.456;2023-11-21T00:28:13;1.88;;;1.20;;
67554;SDS011;54385;53.516;49.456;2023-11-21T00:30:41;1.40;;;1.20;;
67554;SDS011;54385;53.516;49.456;2023-11-21T00:33:07;1.30;;;1.20;;
67554;SDS011;54385;53.516;49.456;2023-11-21T00:35:34;1.25;;;1.13;;
67554;SDS011;54385;53.516;49.456;2023-11-21T00:38:01;1.23;;;1.05;;
67554;SDS011;54385;53.516;49.456;2023-11-21T00:40:29;1.42;;;1.17;;
67554;SDS011;54385;53.516;49.456;2023-11-21T00:42:56;1.52;;;1.13;;
67554;SDS011;54385;53.516;49.456;2023-11-21T00:45:23;1.40;;;1.20;;
67554;SDS011;54385;53.516;49.456;2023-11-21T00:47:50;1.95;;;1.35;;
67554;SDS011;54385;53.516;49.456;2023-11-21T00:50:17;1.35;;;1.13;;
67554;SDS011;54385;53.516;49.456;2023-11-21T00:52:43;1.77;;;1.20;;
67554;SDS011;54385;53.516;49.456;2023-11-21T00:55:10;1.17;;;0.98;;
67554;SDS011;54385;53.516;49.456;2023-11-21T00:57:37;1.30;;;1.10;;
67554;SDS011;54385;53.516;49.456;2023-11-21T01:00:04;1.60;;;1.13;;
67554;SDS011;54385;53.516;49.456;2023-11-21T01:02:43;3.10;;;1.10;;
67554;SDS011;54385;53.516;49.456;2023-11-21T01:05:13;1.55;;;1.38;;
67554;SDS011;54385;53.516;49.456;2023-11-21T01:07:40;2.00;;;1.27;;
67554;SDS011;54385;53.516;49.456;2023-11-21T01:10:06;1.30;;;1.10;;
67554;SDS011;54385;53.516;49.456;2023-11-21T01:12:37;1.17;;;0.98;;
67554;SDS011;54385;53.516;49.456;2023-11-21T01:15:05;1.50;;;1.05;;
67554;SDS011;54385;53.516;49.456;2023-11-21T01:17:37;1.17;;;1.00;;
67554;SDS011;54385;53.516;49.456;2023-11-21T01:20:04;2.20;;;1.10;;
67554;SDS011;54385;53.516;49.456;2023-11-21T01:22:37;1.50;;;1.10;;
67554;SDS011;54385;53.516;49.456;2023-11-21T01:25:04;1.80;;;0.90;;
67554;SDS011;54385;53.516;49.456;2023-11-21T01:27:36;1.35;;;1.17;;
67554;SDS011;54385;53.516;49.456;2023-11-21T01:30:05;1.48;;;0.93;;
67554;SDS011;54385;53.516;49.456;2023-11-21T01:32:33;1.35;;;1.00;;
67554;SDS011;54385;53.516;49.456;2023-11-21T01:35:00;1.48;;;1.13;;
67554;SDS011;54385;53.516;49.456;2023-11-21T01:37:26;1.50;;;1.15;;
67554;SDS011;54385;53.516;49.456;2023-11-21T01:39:54;1.33;;;1.20;;
67554;SDS011;54385;53.516;49.456;2023-11-21T01:42:23;1.55;;;1.00;;
67554;SDS011;54385;53.516;49.456;2023-11-21T01:44:49;1.60;;;1.30;;
67554;SDS011;54385;53.516;49.456;2023-11-21T01:47:18;1.35;;;1.17;;
67554;SDS011;54385;53.516;49.456;2023-11-21T01:49:47;1.02;;;0.90;;
67554;SDS011;54385;53.516;49.456;2023-11-21T01:52:14;1.70;;;1.17;;
67554;SDS011;54385;53.516;49.456;2023-11-21T01:54:40;1.58;;;1.20;;
67554;SDS011;54385;53.516;49.456;2023-11-21T01:57:08;1.23;;;1.10;;
67554;SDS011;54385;53.516;49.456;2023-11-21T01:59:35;1.48;;;1.10;;
67554;SDS011;54385;53.516;49.456;2023-11-21T02:02:05;2.47;;;1.02;;
67554;SDS011;54385;53.516;49.456;2023-11-21T02:04:33;1.40;;;1.13;;
67554;SDS011;54385;53.516;49.456;2023-11-21T02:07:00;1.35;;;1.10;;
67554;SDS011;54385;53.516;49.456;2023-11-21T02:09:27;3.45;;;1.20;;
67554;SDS011;54385;53.516;49.456;2023-11-21T02:11:55;1.65;;;1.20;;
67554;SDS011;54385;53.516;49.456;2023-11-21T02:14:22;1.10;;;1.00;;
67554;SDS011;54385;53.516;49.456;2023-11-21T02:16:49;1.40;;;1.00;;
67554;SDS011;54385;53.516;49.456;2023-11-21T02:19:19;1.73;;;1.13;;
67554;SDS011;54385;53.516;49.456;2023-11-21T02:24:15;1.30;;;1.10;;
67554;SDS011;54385;53.516;49.456;2023-11-21T02:26:43;1.95;;;1.30;;
67554;SDS011;54385;53.516;49.456;2023-11-21T02:29:11;1.48;;;1.38;;
67554;SDS011;54385;53.516;49.456;2023-11-21T02:31:39;1.70;;;1.10;;
67554;SDS011;54385;53.516;49.456;2023-11-21T02:34:14;1.40;;;1.10;;
67554;SDS011;54385;53.516;49.456;2023-11-21T02:36:41;1.92;;;1.40;;
67554;SDS011;54385;53.516;49.456;2023-11-21T02:39:08;1.40;;;1.10;;
67554;SDS011;54385;53.516;49.456;2023-11-21T02:44:07;1.40;;;1.10;;
67554;SDS011;54385;53.516;49.456;2023-11-21T02:46:34;1.38;;;1.27;;
67554;SDS011;54385;53.516;49.456;2023-11-21T02:49:05;1.83;;;1.10;;
67554;SDS011;54385;53.516;49.456;2023-11-21T02:51:35;1.52;;;1.20;;
67554;SDS011;54385;53.516;49.456;2023-11-21T02:54:04;1.55;;;1.00;;
67554;SDS011;54385;53.516;49.456;2023-11-21T02:56:34;1.60;;;1.13;;
67554;SDS011;54385;53.516;49.456;2023-11-21T02:59:00;1.27;;;0.93;;
67554;SDS011;54385;53.516;49.456;2023-11-21T03:01:28;1.27;;;1.10;;
67554;SDS011;54385;53.516;49.456;2023-11-21T03:03:55;2.55;;;0.98;;
67554;SDS011;54385;53.516;49.456;2023-11-21T03:06:41;1.60;;;1.08;;
67554;SDS011;54385;53.516;49.456;2023-11-21T03:09:08;1.75;;;1.30;;
67554;SDS011;54385;53.516;49.456;2023-11-21T03:11:35;1.42;;;1.10;;
67554;SDS011;54385;53.516;49.456;2023-11-21T03:14:01;1.50;;;1.17;;
67554;SDS011;54385;53.516;49.456;2023-11-21T03:16:28;1.50;;;1.13;;
67554;SDS011;54385;53.516;49.456;2023-11-21T03:18:55;1.63;;;1.20;;
67554;SDS011;54385;53.516;49.456;2023-11-21T03:21:22;1.60;;;1.40;;
67554;SDS011;54385;53.516;49.456;2023-11-21T03:23:49;3.05;;;1.20;;
67554;SDS011;54385;53.516;49.456;2023-11-21T03:26:15;1.65;;;1.48;;
67554;SDS011;54385;53.516;49.456;2023-11-21T03:28:42;2.88;;;1.60;;
67554;SDS011;54385;53.516;49.456;2023-11-21T03:31:15;2.85;;;1.48;;
67554;SDS011;54385;53.516;49.456;2023-11-21T03:33:44;2.10;;;1.50;;
67554;SDS011;54385;53.516;49.456;2023-11-21T03:36:13;2.45;;;1.70;;
67554;SDS011;54385;53.516;49.456;2023-11-21T03:38:44;2.13;;;1.48;;
67554;SDS011;54385;53.516;49.456;2023-11-21T03:41:11;3.78;;;1.80;;
67554;SDS011;54385;53.516;49.456;2023-11-21T03:43:37;1.90;;;1.40;;
67554;SDS011;54385;53.516;49.456;2023-11-21T03:46:10;2.40;;;1.45;;
67554;SDS011;54385;53.516;49.456;2023-11-21T03:48:39;2.63;;;1.75;;
67554;SDS011;54385;53.516;49.456;2023-11-21T03:51:06;2.70;;;1.60;;
67554;SDS011;54385;53.516;49.456;2023-11-21T03:53:33;3.80;;;1.70;;
67554;SDS011;54385;53.516;49.456;2023-11-21T03:55:59;2.03;;;1.60;;
67554;SDS011;54385;53.516;49.456;2023-11-21T03:58:29;2.45;;;1.70;;
67554;SDS011;54385;53.516;49.456;2023-11-21T04:00:55;1.70;;;1.40;;
67554;SDS011;54385;53.516;49.456;2023-11-21T04:03:22;4.10;;;1.58;;
67554;SDS011;54385;53.516;49.456;2023-11-21T04:05:48;4.70;;;1.75;;
67554;SDS011;54385;53.516;49.456;2023-11-21T04:08:16;2.60;;;1.52;;
67554;SDS011;54385;53.516;49.456;2023-11-21T04:10:45;3.25;;;1.70;;
67554;SDS011;54385;53.516;49.456;2023-11-21T04:13:11;1.67;;;1.30;;
67554;SDS011;54385;53.516;49.456;2023-11-21T04:15:38;5.03;;;1.65;;
67554;SDS011;54385;53.516;49.456;2023-11-21T04:18:04;3.58;;;1.58;;
67554;SDS011;54385;53.516;49.456;2023-11-21T04:20:31;2.63;;;1.58;;
67554;SDS011;54385;53.516;49.456;2023-11-21T04:22:58;3.08;;;1.77;;
67554;SDS011;54385;53.516;49.456;2023-11-21T04:25:24;2.03;;;1.52;;
67554;SDS011;54385;53.516;49.456;2023-11-21T04:27:51;3.13;;;1.90;;
67554;SDS011;54385;53.516;49.456;2023-11-21T04:30:17;3.08;;;1.70;;
67554;SDS011;54385;53.516;49.456;2023-11-21T04:32:44;5.70;;;1.70;;
67554;SDS011;54385;53.516;49.456;2023-11-21T04:35:11;4.68;;;1.80;;
67554;SDS011;54385;53.516;49.456;2023-11-21T04:37:37;3.00;;;1.50;;
67554;SDS011;54385;53.516;49.456;2023-11-21T04:40:04;1.92;;;1.40;;
67554;SDS011;54385;53.516;49.456;2023-11-21T04:42:34;3.28;;;1.77;;
67554;SDS011;54385;53.516;49.456;2023-11-21T04:45:03;2.40;;;1.30;;
67554;SDS011;54385;53.516;49.456;2023-11-21T04:47:34;3.20;;;1.70;;
67554;SDS011;54385;53.516;49.456;2023-11-21T04:50:05;4.28;;;1.77;;
67554;SDS011;54385;53.516;49.456;2023-11-21T04:53:02;2.05;;;1.50;;
67554;SDS011;54385;53.516;49.456;2023-11-21T04:55:29;4.82;;;1.75;;
67554;SDS011;54385;53.516;49.456;2023-11-21T04:57:56;4.55;;;2.03;;
67554;SDS011;54385;53.516;49.456;2023-11-21T05:03:44;3.63;;;1.67;;
67554;SDS011;54385;53.516;49.456;2023-11-21T05:06:23;2.75;;;1.70;;
67554;SDS011;54385;53.516;49.456;2023-11-21T05:08:54;2.88;;;1.73;;
67554;SDS011;54385;53.516;49.456;2023-11-21T05:11:43;3.47;;;1.40;;
67554;SDS011;54385;53.516;49.456;2023-11-21T05:14:14;2.80;;;1.60;;
67554;SDS011;54385;53.516;49.456;2023-11-21T05:16:41;3.08;;;1.40;;
67554;SDS011;54385;53.516;49.456;2023-11-21T05:19:10;4.20;;;1.60;;
67554;SDS011;54385;53.516;49.456;2023-11-21T05:21:39;2.83;;;1.70;;
67554;SDS011;54385;53.516;49.456;2023-11-21T05:24:06;3.08;;;1.60;;
67554;SDS011;54385;53.516;49.456;2023-11-21T05:26:33;3.28;;;1.25;;
67554;SDS011;54385;53.516;49.456;2023-11-21T05:29:11;4.53;;;1.98;;
67554;SDS011;54385;53.516;49.456;2023-11-21T05:31:49;4.28;;;1.30;;
67554;SDS011;54385;53.516;49.456;2023-11-21T05:34:18;2.97;;;1.75;;
67554;SDS011;54385;53.516;49.456;2023-11-21T05:36:50;2.47;;;1.50;;
67554;SDS011;54385;53.516;49.456;2023-11-21T05:39:17;3.80;;;1.65;;
67554;SDS011;54385;53.516;49.456;2023-11-21T05:41:44;3.90;;;1.60;;
67554;SDS011;54385;53.516;49.456;2023-11-21T05:44:11;4.55;;;1.73;;
67554;SDS011;54385;53.516;49.456;2023-11-21T05:46:40;2.92;;;1.10;;
67554;SDS011;54385;53.516;49.456;2023-11-21T05:49:09;3.10;;;1.50;;
67554;SDS011;54385;53.516;49.456;2023-11-21T05:51:48;4.38;;;1.70;;
67554;SDS011;54385;53.516;49.456;2023-11-21T05:54:14;3.10;;;1.40;;
67554;SDS011;54385;53.516;49.456;2023-11-21T05:56:50;2.35;;;1.45;;
67554;SDS011;54385;53.516;49.456;2023-11-21T05:59:17;2.53;;;1.50;;
67554;SDS011;54385;53.516;49.456;2023-11-21T06:01:46;2.72;;;1.63;;
67554;SDS011;54385;53.516;49.456;2023-11-21T06:04:16;5.15;;;1.98;;
67554;SDS011;54385;53.516;49.456;2023-11-21T06:06:46;3.22;;;1.63;;
67554;SDS011;54385;53.516;49.456;2023-11-21T06:09:16;3.53;;;1.50;;
67554;SDS011;54385;53.516;49.456;2023-11-21T06:11:42;3.30;;;1.52;;
67554;SDS011;54385;53.516;49.456;2023-11-21T06:14:09;2.83;;;1.60;;
67554;SDS011;54385;53.516;49.456;2023-11-21T06:16:36;2.83;;;1.48;;
67554;SDS011;54385;53.516;49.456;2023-11-21T06:19:03;2.20;;;1.35;;
67554;SDS011;54385;53.516;49.456;2023-11-21T06:21:31;4.10;;;1.38;;
67554;SDS011;54385;53.516;49.456;2023-11-21T06:24:04;6.40;;;1.52;;
67554;SDS011;54385;53.516;49.456;2023-11-21T06:26:31;2.45;;;1.45;;
67554;SDS011;54385;53.516;49.456;2023-11-21T06:29:03;2.20;;;1.40;;
67554;SDS011;54385;53.516;49.456;2023-11-21T06:31:33;2.33;;;1.20;;
67554;SDS011;54385;53.516;49.456;2023-11-21T06:34:02;3.45;;;1.77;;
67554;SDS011;54385;53.516;49.456;2023-11-21T06:36:32;4.38;;;1.73;;
67554;SDS011;54385;53.516;49.456;2023-11-21T06:39:03;4.00;;;1.85;;
67554;SDS011;54385;53.516;49.456;2023-11-21T06:45:33;4.93;;;1.83;;
67554;SDS011;54385;53.516;49.456;2023-11-21T06:48:03;3.00;;;1.60;;
67554;SDS011;54385;53.516;49.456;2023-11-21T06:50:34;3.45;;;1.60;;
67554;SDS011;54385;53.516;49.456;2023-11-21T06:53:04;4.30;;;1.70;;
67554;SDS011;54385;53.516;49.456;2023-11-21T06:55:48;3.50;;;2.15;;
67554;SDS011;54385;53.516;49.456;2023-11-21T06:58:29;2.22;;;1.70;;
67554;SDS011;54385;53.516;49.456;2023-11-21T07:01:05;3.75;;;1.77;;
67554;SDS011;54385;53.516;49.456;2023-11-21T07:03:39;3.33;;;1.40;;
67554;SDS011;54385;53.516;49.456;2023-11-21T07:06:41;3.85;;;2.08;;
67554;SDS011;54385;53.516;49.456;2023-11-21T07:09:13;3.92;;;1.75;;
67554;SDS011;54385;53.516;49.456;2023-11-21T07:11:43;2.42;;;1.63;;
67554;SDS011;54385;53.516;49.456;2023-11-21T07:14:10;2.60;;;1.63;;
67554;SDS011;54385;53.516;49.456;2023-11-21T07:16:40;3.22;;;1.80;;
67554;SDS011;54385;53.516;49.456;2023-11-21T07:19:12;3.42;;;1.77;;
67554;SDS011;54385;53.516;49.456;2023-11-21T07:21:46;3.58;;;2.10;;
67554;SDS011;54385;53.516;49.456;2023-11-21T07:24:17;2.63;;;1.80;;
67554;SDS011;54385;53.516;49.456;2023-11-21T07:26:46;3.50;;;1.70;;
67554;SDS011;54385;53.516;49.456;2023-11-21T07:29:16;6.45;;;1.92;;
67554;SDS011;54385;53.516;49.456;2023-11-21T07:31:57;3.65;;;1.90;;
67554;SDS011;54385;53.516;49.456;2023-11-21T07:34:23;3.58;;;1.88;;
67554;SDS011;54385;53.516;49.456;2023-11-21T07:36:51;4.10;;;2.00;;
67554;SDS011;54385;53.516;49.456;2023-11-21T07:39:32;4.85;;;1.88;;
67554;SDS011;54385;53.516;49.456;2023-11-21T07:42:02;2.70;;;1.90;;
67554;SDS011;54385;53.516;49.456;2023-11-21T07:44:35;2.55;;;2.08;;
67554;SDS011;54385;53.516;49.456;2023-11-21T07:48:27;5.00;;;2.13;;
67554;SDS011;54385;53.516;49.456;2023-11-21T07:51:00;3.30;;;2.20;;
67554;SDS011;54385;53.516;49.456;2023-11-21T07:53:29;3.47;;;2.08;;
67554;SDS011;54385;53.516;49.456;2023-11-21T07:56:21;4.25;;;2.00;;
67554;SDS011;54385;53.516;49.456;2023-11-21T08:01:50;2.28;;;1.88;;
67554;SDS011;54385;53.516;49.456;2023-11-21T08:04:33;2.90;;;1.98;;
67554;SDS011;54385;53.516;49.456;2023-11-21T08:07:01;2.75;;;2.10;;
67554;SDS011;54385;53.516;49.456;2023-11-21T08:09:34;3.83;;;2.20;;
67554;SDS011;54385;53.516;49.456;2023-11-21T08:12:01;4.07;;;2.67;;
67554;SDS011;54385;53.516;49.456;2023-11-21T08:14:30;2.78;;;1.98;;
67554;SDS011;54385;53.516;49.456;2023-11-21T08:17:03;4.10;;;2.08;;
67554;SDS011;54385;53.516;49.456;2023-11-21T08:24:19;3.30;;;2.05;;
67554;SDS011;54385;53.516;49.456;2023-11-21T08:26:47;4.70;;;1.98;;
67554;SDS011;54385;53.516;49.456;2023-11-21T08:29:16;4.90;;;2.38;;
67554;SDS011;54385;53.516;49.456;2023-11-21T08:32:02;3.65;;;2.45;;
67554;SDS011;54385;53.516;49.456;2023-11-21T08:34:39;4.72;;;2.40;;
67554;SDS011;54385;53.516;49.456;2023-11-21T08:37:08;5.95;;;2.55;;
67554;SDS011;54385;53.516;49.456;2023-11-21T08:39:36;5.10;;;2.88;;
67554;SDS011;54385;53.516;49.456;2023-11-21T08:42:06;4.13;;;2.20;;
67554;SDS011;54385;53.516;49.456;2023-11-21T08:44:37;3.38;;;2.50;;
67554;SDS011;54385;53.516;49.456;2023-11-21T08:47:08;5.05;;;2.50;;
67554;SDS011;54385;53.516;49.456;2023-11-21T08:49:38;3.47;;;2.30;;
67554;SDS011;54385;53.516;49.456;2023-11-21T08:52:49;3.28;;;2.38;;
67554;SDS011;54385;53.516;49.456;2023-11-21T08:55:17;3.75;;;2.50;;
67554;SDS011;54385;53.516;49.456;2023-11-21T08:57:50;3.17;;;2.55;;
67554;SDS011;54385;53.516;49.456;2023-11-21T09:00:21;3.97;;;2.60;;
67554;SDS011;54385;53.516;49.456;2023-11-21T09:02:49;6.45;;;2.95;;
67554;SDS011;54385;53.516;49.456;2023-11-21T09:05:16;6.93;;;2.97;;
67554;SDS011;54385;53.516;49.456;2023-11-21T09:07:49;4.47;;;2.80;;
67554;SDS011;54385;53.516;49.456;2023-11-21T09:10:16;3.70;;;2.83;;
67554;SDS011;54385;53.516;49.456;2023-11-21T09:12:44;5.25;;;3.08;;
67554;SDS011;54385;53.516;49.456;2023-11-21T09:18:26;3.90;;;2.80;;
67554;SDS011;54385;53.516;49.456;2023-11-21T09:21:02;4.53;;;2.88;;
67554;SDS011;54385;53.516;49.456;2023-11-21T09:23:30;4.47;;;2.72;;
67554;SDS011;54385;53.516;49.456;2023-11-21T09:25:57;4.20;;;2.78;;
67554;SDS011;54385;53.516;49.456;2023-11-21T09:28:27;3.20;;;2.60;;
67554;SDS011;54385;53.516;49.456;2023-11-21T09:30:57;4.93;;;2.75;;
67554;SDS011;54385;53.516;49.456;2023-11-21T09:33:27;4.45;;;2.83;;
67554;SDS011;54385;53.516;49.456;2023-11-21T09:36:26;4.50;;;2.53;;
67554;SDS011;54385;53.516;49.456;2023-11-21T09:38:56;5.53;;;3.05;;
67554;SDS011;54385;53.516;49.456;2023-11-21T09:41:46;6.00;;;2.70;;
67554;SDS011;54385;53.516;49.456;2023-11-21T09:48:06;4.00;;;2.60;;
67554;SDS011;54385;53.516;49.456;2023-11-21T09:50:59;3.83;;;2.65;;
67554;SDS011;54385;53.516;49.456;2023-11-21T09:53:29;3.65;;;2.85;;
67554;SDS011;54385;53.516;49.456;2023-11-21T09:56:34;3.92;;;2.50;;
67554;SDS011;54385;53.516;49.456;2023-11-21T09:59:01;5.00;;;2.40;;
67554;SDS011;54385;53.516;49.456;2023-11-21T10:01:46;4.75;;;3.38;;
67554;SDS011;54385;53.516;49.456;2023-11-21T10:04:20;3.35;;;2.58;;
67554;SDS011;54385;53.516;49.456;2023-11-21T10:06:51;4.63;;;2.63;;
67554;SDS011;54385;53.516;49.456;2023-11-21T10:12:03;5.55;;;3.10;;
67554;SDS011;54385;53.516;49.456;2023-11-21T10:14:35;4.38;;;2.42;;
67554;SDS011;54385;53.516;49.456;2023-11-21T10:17:06;3.65;;;2.33;;
67554;SDS011;54385;53.516;49.456;2023-11-21T10:19:38;3.72;;;2.78;;
67554;SDS011;54385;53.516;49.456;2023-11-21T10:22:06;3.85;;;2.60;;
67554;SDS011;54385;53.516;49.456;2023-11-21T10:24:36;4.25;;;2.70;;
67554;SDS011;54385;53.516;49.456;2023-11-21T10:27:04;4.72;;;2.30;;
67554;SDS011;54385;53.516;49.456;2023-11-21T10:29:36;3.15;;;2.60;;
67554;SDS011;54385;53.516;49.456;2023-11-21T10:32:05;4.55;;;2.63;;
67554;SDS011;54385;53.516;49.456;2023-11-21T10:34:32;4.03;;;2.88;;
67554;SDS011;54385;53.516;49.456;2023-11-21T10:37:12;3.05;;;2.53;;
67554;SDS011;54385;53.516;49.456;2023-11-21T10:39:39;3.65;;;2.40;;
67554;SDS011;54385;53.516;49.456;2023-11-21T10:42:07;4.95;;;2.72;;
67554;SDS011;54385;53.516;49.456;2023-11-21T10:44:48;4.10;;;2.60;;
67554;SDS011;54385;53.516;49.456;2023-11-21T10:47:19;4.85;;;2.60;;
67554;SDS011;54385;53.516;49.456;2023-11-21T10:49:54;4.43;;;2.70;;
67554;SDS011;54385;53.516;49.456;2023-11-21T10:52:26;3.53;;;2.40;;
67554;SDS011;54385;53.516;49.456;2023-11-21T10:54:56;3.92;;;2.50;;
67554;SDS011;54385;53.516;49.456;2023-11-21T10:57:25;3.28;;;2.40;;
67554;SDS011;54385;53.516;49.456;2023-11-21T10:59:56;3.20;;;2.42;;
67554;SDS011;54385;53.516;49.456;2023-11-21T11:03:20;4.25;;;2.47;;
67554;SDS011;54385;53.516;49.456;2023-11-21T11:05:51;3.67;;;2.60;;
67554;SDS011;54385;53.516;49.456;2023-11-21T11:08:22;3.65;;;2.40;;
67554;SDS011;54385;53.516;49.456;2023-11-21T11:10:57;3.22;;;2.50;;
67554;SDS011;54385;53.516;49.456;2023-11-21T11:13:28;2.92;;;2.17;;
67554;SDS011;54385;53.516;49.456;2023-11-21T11:15:58;3.63;;;2.60;;
67554;SDS011;54385;53.516;49.456;2023-11-21T11:18:29;2.63;;;2.10;;
67554;SDS011;54385;53.516;49.456;2023-11-21T11:23:59;3.80;;;2.17;;
67554;SDS011;54385;53.516;49.456;2023-11-21T11:30:23;2.85;;;2.35;;
67554;SDS011;54385;53.516;49.456;2023-11-21T11:38:51;3.75;;;2.33;;
67554;SDS011;54385;53.516;49.456;2023-11-21T11:41:25;3.17;;;2.20;;
67554;SDS011;54385;53.516;49.456;2023-11-21T11:43:53;4.80;;;2.70;;
67554;SDS011;54385;53.516;49.456;2023-11-21T11:46:44;2.92;;;2.30;;
67554;SDS011;54385;53.516;49.456;2023-11-21T11:49:25;3.72;;;2.20;;
67554;SDS011;54385;53.516;49.456;2023-11-21T11:54:49;3.17;;;2.45;;
67554;SDS011;54385;53.516;49.456;2023-11-21T11:57:24;3.42;;;2.25;;
67554;SDS011;54385;53.516;49.456;2023-11-21T12:02:56;3.28;;;2.30;;
67554;SDS011;54385;53.516;49.456;2023-11-21T12:05:28;2.65;;;2.13;;
67554;SDS011;54385;53.516;49.456;2023-11-21T12:08:05;4.40;;;2.53;;
67554;SDS011;54385;53.516;49.456;2023-11-21T12:10:37;2.83;;;2.50;;
67554;SDS011;54385;53.516;49.456;2023-11-21T12:13:14;3.83;;;2.40;;
67554;SDS011;54385;53.516;49.456;2023-11-21T12:15:53;2.78;;;2.17;;
67554;SDS011;54385;53.516;49.456;2023-11-21T12:18:40;2.95;;;2.17;;
67554;SDS011;54385;53.516;49.456;2023-11-21T12:21:10;3.53;;;2.13;;
67554;SDS011;54385;53.516;49.456;2023-11-21T12:23:46;3.45;;;2.40;;
67554;SDS011;54385;53.516;49.456;2023-11-21T12:26:16;3.50;;;2.10;;
67554;SDS011;54385;53.516;49.456;2023-11-21T12:28:44;2.67;;;2.03;;
67554;SDS011;54385;53.516;49.456;2023-11-21T12:31:24;2.70;;;2.22;;
67554;SDS011;54385;53.516;49.456;2023-11-21T12:33:57;4.15;;;2.17;;
67554;SDS011;54385;53.516;49.456;2023-11-21T12:36:24;3.55;;;2.15;;
67554;SDS011;54385;53.516;49.456;2023-11-21T12:38:54;2.65;;;1.98;;
67554;SDS011;54385;53.516;49.456;2023-11-21T12:41:23;3.30;;;2.60;;
67554;SDS011;54385;53.516;49.456;2023-11-21T12:43:50;2.72;;;2.10;;
67554;SDS011;54385;53.516;49.456;2023-11-21T12:46:17;2.58;;;2.22;;
67554;SDS011;54385;53.516;49.456;2023-11-21T12:48:44;4.53;;;2.45;;
67554;SDS011;54385;53.516;49.456;2023-11-21T12:51:12;2.97;;;2.17;;
67554;SDS011;54385;53.516;49.456;2023-11-21T12:53:44;3.50;;;2.53;;
67554;SDS011;54385;53.516;49.456;2023-11-21T12:56:17;3.08;;;2.40;;
67554;SDS011;54385;53.516;49.456;2023-11-21T12:58:46;2.55;;;2.20;;
67554;SDS011;54385;53.516;49.456;2023-11-21T13:01:37;2.40;;;2.20;;
67554;SDS011;54385;53.516;49.456;2023-11-21T13:04:07;2.67;;;1.92;;
67554;SDS011;54385;53.516;49.456;2023-11-21T13:06:36;2.35;;;1.80;;
67554;SDS011;54385;53.516;49.456;2023-11-21T13:09:10;2.65;;;2.22;;
67554;SDS011;54385;53.516;49.456;2023-11-21T13:11:49;3.88;;;2.20;;
67554;SDS011;54385;53.516;49.456;2023-11-21T13:16:58;3.03;;;1.90;;
67554;SDS011;54385;53.516;49.456;2023-11-21T13:19:25;2.33;;;1.90;;
67554;SDS011;54385;53.516;49.456;2023-11-21T13:21:57;2.42;;;2.10;;
67554;SDS011;54385;53.516;49.456;2023-11-21T13:24:24;3.30;;;2.10;;
67554;SDS011;54385;53.516;49.456;2023-11-21T13:26:52;3.45;;;2.22;;
67554;SDS011;54385;53.516;49.456;2023-11-21T13:29:18;2.92;;;2.20;;
67554;SDS011;54385;53.516;49.456;2023-11-21T13:31:46;2.90;;;2.05;;
67554;SDS011;54385;53.516;49.456;2023-11-21T13:34:22;2.90;;;1.92;;
67554;SDS011;54385;53.516;49.456;2023-11-21T13:36:51;3.00;;;2.40;;
67554;SDS011;54385;53.516;49.456;2023-11-21T13:39:24;3.72;;;2.30;;
67554;SDS011;54385;53.516;49.456;2023-11-21T13:41:57;3.28;;;2.15;;
67554;SDS011;54385;53.516;49.456;2023-11-21T13:44:26;2.85;;;1.92;;
67554;SDS011;54385;53.516;49.456;2023-11-21T13:47:03;2.47;;;2.20;;
67554;SDS011;54385;53.516;49.456;2023-11-21T13:49:35;2.58;;;2.10;;
67554;SDS011;54385;53.516;49.456;2023-11-21T13:52:06;2.65;;;2.25;;
67554;SDS011;54385;53.516;49.456;2023-11-21T13:54:33;4.05;;;2.22;;
67554;SDS011;54385;53.516;49.456;2023-11-21T13:57:10;3.28;;;2.38;;
67554;SDS011;54385;53.516;49.456;2023-11-21T13:59:40;3.83;;;1.95;;
67554;SDS011;54385;53.516;49.456;2023-11-21T14:02:10;2.90;;;2.10;;
67554;SDS011;54385;53.516;49.456;2023-11-21T14:04:54;2.92;;;2.13;;
67554;SDS011;54385;53.516;49.456;2023-11-21T14:07:29;2.88;;;2.17;;
67554;SDS011;54385;53.516;49.456;2023-11-21T14:10:16;2.83;;;2.00;;
67554;SDS011;54385;53.516;49.456;2023-11-21T14:12:47;3.40;;;2.30;;
67554;SDS011;54385;53.516;49.456;2023-11-21T14:15:16;2.35;;;1.83;;
67554;SDS011;54385;53.516;49.456;2023-11-21T14:17:44;2.80;;;2.30;;
67554;SDS011;54385;53.516;49.456;2023-11-21T14:20:11;2.78;;;1.92;;
67554;SDS011;54385;53.516;49.456;2023-11-21T14:22:41;2.97;;;2.20;;
67554;SDS011;54385;53.516;49.456;2023-11-21T14:25:09;3.80;;;2.30;;
67554;SDS011;54385;53.516;49.456;2023-11-21T14:27:38;2.97;;;2.28;;
67554;SDS011;54385;53.516;49.456;2023-11-21T14:33:38;2.30;;;1.90;;
67554;SDS011;54385;53.516;49.456;2023-11-21T14:36:05;2.90;;;2.22;;
67554;SDS011;54385;53.516;49.456;2023-11-21T14:38:38;3.42;;;2.28;;
67554;SDS011;54385;53.516;49.456;2023-11-21T14:41:08;2.83;;;2.20;;
67554;SDS011;54385;53.516;49.456;2023-11-21T14:43:36;3.03;;;2.08;;
67554;SDS011;54385;53.516;49.456;2023-11-21T14:46:05;2.95;;;2.17;;
67554;SDS011;54385;53.516;49.456;2023-11-21T14:48:37;3.97;;;2.33;;
67554;SDS011;54385;53.516;49.456;2023-11-21T14:51:13;3.10;;;2.20;;
67554;SDS011;54385;53.516;49.456;2023-11-21T14:53:53;3.15;;;2.00;;
67554;SDS011;54385;53.516;49.456;2023-11-21T14:56:23;2.45;;;2.00;;
67554;SDS011;54385;53.516;49.456;2023-11-21T14:58:57;2.95;;;2.15;;
67554;SDS011;54385;53.516;49.456;2023-11-21T15:02:07;2.47;;;1.98;;
67554;SDS011;54385;53.516;49.456;2023-11-21T15:04:53;2.25;;;1.80;;
67554;SDS011;54385;53.516;49.456;2023-11-21T15:07:47;3.17;;;2.22;;
67554;SDS011;54385;53.516;49.456;2023-11-21T15:10:45;3.33;;;2.17;;
67554;SDS011;54385;53.516;49.456;2023-11-21T15:13:13;2.13;;;1.70;;
67554;SDS011;54385;53.516;49.456;2023-11-21T15:15:45;2.67;;;2.00;;
67554;SDS011;54385;53.516;49.456;2023-11-21T15:20:53;2.70;;;2.03;;
67554;SDS011;54385;53.516;49.456;2023-11-21T15:23:20;2.60;;;1.98;;
67554;SDS011;54385;53.516;49.456;2023-11-21T15:26:20;2.92;;;2.17;;
67554;SDS011;54385;53.516;49.456;2023-11-21T15:28:47;2.80;;;2.20;;
67554;SDS011;54385;53.516;49.456;2023-11-21T15:31:14;3.08;;;1.83;;
67554;SDS011;54385;53.516;49.456;2023-11-21T15:33:51;2.83;;;1.92;;
67554;SDS011;54385;53.516;49.456;2023-11-21T15:36:19;2.78;;;1.95;;
67554;SDS011;54385;53.516;49.456;2023-11-21T15:38:46;3.17;;;2.10;;
67554;SDS011;54385;53.516;49.456;2023-11-21T15:41:13;3.15;;;2.05;;
67554;SDS011;54385;53.516;49.456;2023-11-21T15:43:39;3.97;;;2.05;;
67554;SDS011;54385;53.516;49.456;2023-11-21T15:46:05;2.75;;;2.20;;
67554;SDS011;54385;53.516;49.456;2023-11-21T15:48:34;2.80;;;2.13;;
67554;SDS011;54385;53.516;49.456;2023-11-21T15:51:06;2.00;;;1.83;;
67554;SDS011;54385;53.516;49.456;2023-11-21T15:53:36;2.00;;;1.80;;
67554;SDS011;54385;53.516;49.456;2023-11-21T15:56:07;2.15;;;1.90;;